Hovedside
METAR-TAF:

METAR-TAF

Lufthavner :

Brisbane lufthavn

Brisbane, Australia

breddegrad: 27-23S, lengdegrad: 153-06E, høyde over havet: 4 m

Gjeldene værobservasjon

Denne rapporten ble laget for 39 minutter siden, klokken 05:00 UTC
Vind 15 kt fra Nord-nordøst
Temperatur 24°C
Luftfuktighet 57%
Trykk 1019 hPa
Sikt 10 km eller mer
ingen skyer under 1500 m og ingen bygeskyer

METAR: YBBN 240500Z 03015KT CAVOK 24/15 Q1019

Tid: 15:39 (05:39 UTC)

Varsel

Denne rapporten ble laget for 6 timer og 39 minutter siden, klokken 23:00 UTC
Varsel gyldig fra 24. klokken 00 UTC til 25. klokken 06 UTC
Vind 14 kt fra Nord-nordøst
Sikt 10 km eller mer
ingen skyer under 1500 m og ingen bygeskyer
Fra 24. klokken 1400 UTC
Vind 6 kt fra Vest-nordvest
Sikt 10 km eller mer
Få skyer i en høyde av 2500 ft
Fra 24. klokken 2300 UTC
Vind 14 kt fra Nord-nordøst
Sikt 10 km eller mer
ingen skyer under 1500 m og ingen bygeskyer

TAF: YBBN 232300Z 2400/2506 02014KT CAVOK FM241400 30006KT 9999 FEW025 FM242300 02014KT CAVOK

Værobservasjoner og værvarsel for over 4000 flyplasser (METAR- og TAF-rapporter).

Tilgjengelige stasjoner er representert av de røde og gule prikkene på kartet.

Hold musepekeren over prikken for å se navnet på stasjonen.

Klikk så for å se værobservasjoner og -varsler.

For å forandre kartet kan du klikke på den grønne knappen med svart kryss for å zoome inn, på den grønne knappen med strek for å zoome ut, eller på de grønne pilene for å se tilstøtende kart.


METAR-TAF: